sensor_id;sensor_type;location;lat;lon;timestamp;P1;durP1;ratioP1;P2;durP2;ratioP2
21677;SDS011;11000;50.360;7.582;2023-04-25T00:02:12;9.40;;;6.83;;
21677;SDS011;11000;50.360;7.582;2023-04-25T00:04:33;9.97;;;7.00;;
21677;SDS011;11000;50.360;7.582;2023-04-25T00:06:53;9.93;;;6.93;;
21677;SDS011;11000;50.360;7.582;2023-04-25T00:09:14;8.87;;;6.90;;
21677;SDS011;11000;50.360;7.582;2023-04-25T00:11:35;9.80;;;7.10;;
21677;SDS011;11000;50.360;7.582;2023-04-25T00:13:56;11.00;;;6.60;;
21677;SDS011;11000;50.360;7.582;2023-04-25T00:16:17;11.23;;;6.97;;
21677;SDS011;11000;50.360;7.582;2023-04-25T00:18:38;9.63;;;6.83;;
21677;SDS011;11000;50.360;7.582;2023-04-25T00:20:59;9.17;;;7.20;;
21677;SDS011;11000;50.360;7.582;2023-04-25T00:23:20;11.97;;;7.37;;
21677;SDS011;11000;50.360;7.582;2023-04-25T00:25:41;9.43;;;7.30;;
21677;SDS011;11000;50.360;7.582;2023-04-25T00:28:01;8.20;;;6.70;;
21677;SDS011;11000;50.360;7.582;2023-04-25T00:30:22;11.73;;;7.17;;
21677;SDS011;11000;50.360;7.582;2023-04-25T00:32:43;12.87;;;7.80;;
21677;SDS011;11000;50.360;7.582;2023-04-25T00:35:03;12.47;;;7.10;;
21677;SDS011;11000;50.360;7.582;2023-04-25T00:37:24;10.23;;;6.57;;
21677;SDS011;11000;50.360;7.582;2023-04-25T00:39:45;11.07;;;6.57;;
21677;SDS011;11000;50.360;7.582;2023-04-25T00:42:05;11.53;;;7.20;;
21677;SDS011;11000;50.360;7.582;2023-04-25T00:44:26;10.03;;;6.20;;
21677;SDS011;11000;50.360;7.582;2023-04-25T00:46:49;9.70;;;6.37;;
21677;SDS011;11000;50.360;7.582;2023-04-25T00:49:10;12.30;;;6.90;;
21677;SDS011;11000;50.360;7.582;2023-04-25T00:51:35;9.10;;;5.73;;
21677;SDS011;11000;50.360;7.582;2023-04-25T00:53:55;10.43;;;7.23;;
21677;SDS011;11000;50.360;7.582;2023-04-25T00:56:16;15.40;;;6.63;;
21677;SDS011;11000;50.360;7.582;2023-04-25T00:58:37;10.50;;;5.83;;
21677;SDS011;11000;50.360;7.582;2023-04-25T01:00:58;10.50;;;6.10;;
21677;SDS011;11000;50.360;7.582;2023-04-25T01:03:20;10.27;;;6.00;;
21677;SDS011;11000;50.360;7.582;2023-04-25T01:05:41;8.83;;;5.50;;
21677;SDS011;11000;50.360;7.582;2023-04-25T01:08:02;10.63;;;5.63;;
21677;SDS011;11000;50.360;7.582;2023-04-25T01:10:23;11.03;;;6.73;;
21677;SDS011;11000;50.360;7.582;2023-04-25T01:12:43;9.67;;;5.90;;
21677;SDS011;11000;50.360;7.582;2023-04-25T01:15:04;10.87;;;5.87;;
21677;SDS011;11000;50.360;7.582;2023-04-25T01:17:25;9.17;;;6.27;;
21677;SDS011;11000;50.360;7.582;2023-04-25T01:19:47;10.73;;;6.87;;
21677;SDS011;11000;50.360;7.582;2023-04-25T01:22:08;12.00;;;6.43;;
21677;SDS011;11000;50.360;7.582;2023-04-25T01:24:33;15.53;;;6.57;;
21677;SDS011;11000;50.360;7.582;2023-04-25T01:26:54;12.73;;;7.23;;
21677;SDS011;11000;50.360;7.582;2023-04-25T01:29:17;13.67;;;7.47;;
21677;SDS011;11000;50.360;7.582;2023-04-25T01:31:38;10.67;;;7.30;;
21677;SDS011;11000;50.360;7.582;2023-04-25T01:33:59;11.77;;;7.43;;
21677;SDS011;11000;50.360;7.582;2023-04-25T01:36:20;11.47;;;6.93;;
21677;SDS011;11000;50.360;7.582;2023-04-25T01:38:41;12.03;;;6.80;;
21677;SDS011;11000;50.360;7.582;2023-04-25T01:41:03;9.53;;;6.97;;
21677;SDS011;11000;50.360;7.582;2023-04-25T01:43:25;16.07;;;7.93;;
21677;SDS011;11000;50.360;7.582;2023-04-25T01:45:46;11.23;;;7.10;;
21677;SDS011;11000;50.360;7.582;2023-04-25T01:48:12;11.17;;;7.40;;
21677;SDS011;11000;50.360;7.582;2023-04-25T01:50:34;11.67;;;7.13;;
21677;SDS011;11000;50.360;7.582;2023-04-25T01:52:54;9.90;;;7.23;;
21677;SDS011;11000;50.360;7.582;2023-04-25T01:55:15;13.93;;;6.70;;
21677;SDS011;11000;50.360;7.582;2023-04-25T01:57:36;13.43;;;7.47;;
21677;SDS011;11000;50.360;7.582;2023-04-25T02:00:00;13.67;;;8.57;;
21677;SDS011;11000;50.360;7.582;2023-04-25T02:02:22;12.10;;;6.87;;
21677;SDS011;11000;50.360;7.582;2023-04-25T02:04:43;11.53;;;7.20;;
21677;SDS011;11000;50.360;7.582;2023-04-25T02:07:03;11.03;;;7.53;;
21677;SDS011;11000;50.360;7.582;2023-04-25T02:09:24;12.27;;;7.17;;
21677;SDS011;11000;50.360;7.582;2023-04-25T02:11:44;11.10;;;6.50;;
21677;SDS011;11000;50.360;7.582;2023-04-25T02:14:05;11.37;;;6.90;;
21677;SDS011;11000;50.360;7.582;2023-04-25T02:16:25;13.10;;;7.70;;
21677;SDS011;11000;50.360;7.582;2023-04-25T02:18:47;15.03;;;7.53;;
21677;SDS011;11000;50.360;7.582;2023-04-25T02:21:08;12.73;;;7.23;;
21677;SDS011;11000;50.360;7.582;2023-04-25T02:23:28;9.90;;;6.83;;
21677;SDS011;11000;50.360;7.582;2023-04-25T02:25:49;11.63;;;7.00;;
21677;SDS011;11000;50.360;7.582;2023-04-25T02:28:10;9.57;;;6.80;;
21677;SDS011;11000;50.360;7.582;2023-04-25T02:30:30;10.07;;;6.40;;
21677;SDS011;11000;50.360;7.582;2023-04-25T02:32:51;11.17;;;6.63;;
21677;SDS011;11000;50.360;7.582;2023-04-25T02:35:11;8.50;;;7.00;;
21677;SDS011;11000;50.360;7.582;2023-04-25T02:37:33;10.47;;;7.37;;
21677;SDS011;11000;50.360;7.582;2023-04-25T02:39:54;11.07;;;7.00;;
21677;SDS011;11000;50.360;7.582;2023-04-25T02:42:15;11.47;;;6.90;;
21677;SDS011;11000;50.360;7.582;2023-04-25T02:44:35;11.80;;;7.13;;
21677;SDS011;11000;50.360;7.582;2023-04-25T02:46:56;11.50;;;7.07;;
21677;SDS011;11000;50.360;7.582;2023-04-25T02:49:16;10.50;;;7.47;;
21677;SDS011;11000;50.360;7.582;2023-04-25T02:51:37;14.00;;;7.43;;
21677;SDS011;11000;50.360;7.582;2023-04-25T02:53:57;12.10;;;7.90;;
21677;SDS011;11000;50.360;7.582;2023-04-25T02:56:18;11.53;;;7.00;;
21677;SDS011;11000;50.360;7.582;2023-04-25T02:58:38;11.43;;;7.23;;
21677;SDS011;11000;50.360;7.582;2023-04-25T03:00:59;14.70;;;7.33;;
21677;SDS011;11000;50.360;7.582;2023-04-25T03:03:20;11.37;;;7.63;;
21677;SDS011;11000;50.360;7.582;2023-04-25T03:05:43;12.00;;;7.47;;
21677;SDS011;11000;50.360;7.582;2023-04-25T03:08:05;12.47;;;7.47;;
21677;SDS011;11000;50.360;7.582;2023-04-25T03:10:26;13.20;;;7.23;;
21677;SDS011;11000;50.360;7.582;2023-04-25T03:12:46;12.53;;;7.87;;
21677;SDS011;11000;50.360;7.582;2023-04-25T03:15:07;10.80;;;7.13;;
21677;SDS011;11000;50.360;7.582;2023-04-25T03:17:28;13.37;;;8.17;;
21677;SDS011;11000;50.360;7.582;2023-04-25T03:19:48;12.90;;;8.10;;
21677;SDS011;11000;50.360;7.582;2023-04-25T03:22:09;15.90;;;8.17;;
21677;SDS011;11000;50.360;7.582;2023-04-25T03:24:29;12.70;;;7.67;;
21677;SDS011;11000;50.360;7.582;2023-04-25T03:26:50;10.47;;;7.20;;
21677;SDS011;11000;50.360;7.582;2023-04-25T03:29:10;9.90;;;8.00;;
21677;SDS011;11000;50.360;7.582;2023-04-25T03:31:31;10.83;;;7.47;;
21677;SDS011;11000;50.360;7.582;2023-04-25T03:33:52;11.30;;;7.77;;
21677;SDS011;11000;50.360;7.582;2023-04-25T03:36:12;15.23;;;8.13;;
21677;SDS011;11000;50.360;7.582;2023-04-25T03:38:33;13.83;;;8.03;;
21677;SDS011;11000;50.360;7.582;2023-04-25T03:40:53;12.70;;;8.33;;
21677;SDS011;11000;50.360;7.582;2023-04-25T03:43:14;17.43;;;9.17;;
21677;SDS011;11000;50.360;7.582;2023-04-25T03:45:34;14.13;;;8.60;;
21677;SDS011;11000;50.360;7.582;2023-04-25T03:47:55;12.80;;;8.07;;
21677;SDS011;11000;50.360;7.582;2023-04-25T03:50:15;14.20;;;8.97;;
21677;SDS011;11000;50.360;7.582;2023-04-25T03:52:36;14.73;;;8.60;;
21677;SDS011;11000;50.360;7.582;2023-04-25T03:54:57;13.27;;;8.70;;
21677;SDS011;11000;50.360;7.582;2023-04-25T03:57:17;16.73;;;8.80;;
21677;SDS011;11000;50.360;7.582;2023-04-25T03:59:38;13.27;;;8.80;;
21677;SDS011;11000;50.360;7.582;2023-04-25T04:01:58;10.33;;;8.00;;
21677;SDS011;11000;50.360;7.582;2023-04-25T04:04:19;13.40;;;8.20;;
21677;SDS011;11000;50.360;7.582;2023-04-25T04:06:39;14.43;;;8.80;;
21677;SDS011;11000;50.360;7.582;2023-04-25T04:09:00;12.90;;;9.23;;
21677;SDS011;11000;50.360;7.582;2023-04-25T04:11:20;15.77;;;9.20;;
21677;SDS011;11000;50.360;7.582;2023-04-25T04:13:41;15.93;;;9.00;;
21677;SDS011;11000;50.360;7.582;2023-04-25T04:16:01;19.40;;;9.73;;
21677;SDS011;11000;50.360;7.582;2023-04-25T04:18:23;20.33;;;9.27;;
21677;SDS011;11000;50.360;7.582;2023-04-25T04:20:43;15.80;;;9.13;;
21677;SDS011;11000;50.360;7.582;2023-04-25T04:23:04;13.20;;;8.37;;
21677;SDS011;11000;50.360;7.582;2023-04-25T04:25:25;16.50;;;9.27;;
21677;SDS011;11000;50.360;7.582;2023-04-25T04:27:46;19.77;;;8.97;;
21677;SDS011;11000;50.360;7.582;2023-04-25T04:30:07;16.93;;;8.37;;
21677;SDS011;11000;50.360;7.582;2023-04-25T04:32:28;13.93;;;7.40;;
21677;SDS011;11000;50.360;7.582;2023-04-25T04:34:50;17.47;;;8.40;;
21677;SDS011;11000;50.360;7.582;2023-04-25T04:37:10;19.83;;;9.20;;
21677;SDS011;11000;50.360;7.582;2023-04-25T04:39:33;14.40;;;8.23;;
21677;SDS011;11000;50.360;7.582;2023-04-25T04:41:54;17.07;;;8.70;;
21677;SDS011;11000;50.360;7.582;2023-04-25T04:44:14;14.50;;;7.60;;
21677;SDS011;11000;50.360;7.582;2023-04-25T04:46:35;18.47;;;8.47;;
21677;SDS011;11000;50.360;7.582;2023-04-25T04:49:01;15.33;;;8.60;;
21677;SDS011;11000;50.360;7.582;2023-04-25T04:51:22;21.63;;;8.33;;
21677;SDS011;11000;50.360;7.582;2023-04-25T04:53:43;15.67;;;8.93;;
21677;SDS011;11000;50.360;7.582;2023-04-25T04:56:04;18.30;;;8.13;;
21677;SDS011;11000;50.360;7.582;2023-04-25T04:58:24;16.50;;;8.20;;
21677;SDS011;11000;50.360;7.582;2023-04-25T05:00:45;14.40;;;8.37;;
21677;SDS011;11000;50.360;7.582;2023-04-25T05:03:06;11.27;;;7.47;;
21677;SDS011;11000;50.360;7.582;2023-04-25T05:05:26;18.33;;;8.20;;
21677;SDS011;11000;50.360;7.582;2023-04-25T05:07:47;15.47;;;7.97;;
21677;SDS011;11000;50.360;7.582;2023-04-25T05:10:08;12.97;;;7.90;;
21677;SDS011;11000;50.360;7.582;2023-04-25T05:12:28;14.27;;;7.60;;
21677;SDS011;11000;50.360;7.582;2023-04-25T05:14:49;13.70;;;8.00;;
21677;SDS011;11000;50.360;7.582;2023-04-25T05:17:09;16.53;;;7.00;;
21677;SDS011;11000;50.360;7.582;2023-04-25T05:19:31;21.50;;;7.80;;
21677;SDS011;11000;50.360;7.582;2023-04-25T05:21:52;19.00;;;7.67;;
21677;SDS011;11000;50.360;7.582;2023-04-25T05:24:12;17.23;;;6.93;;
21677;SDS011;11000;50.360;7.582;2023-04-25T05:26:33;18.73;;;6.97;;
21677;SDS011;11000;50.360;7.582;2023-04-25T05:28:53;14.80;;;6.43;;
21677;SDS011;11000;50.360;7.582;2023-04-25T05:31:14;13.60;;;7.10;;
21677;SDS011;11000;50.360;7.582;2023-04-25T05:33:34;14.87;;;6.73;;
21677;SDS011;11000;50.360;7.582;2023-04-25T05:35:55;19.30;;;7.77;;
21677;SDS011;11000;50.360;7.582;2023-04-25T05:38:16;17.10;;;7.33;;
21677;SDS011;11000;50.360;7.582;2023-04-25T05:40:36;13.20;;;6.63;;
21677;SDS011;11000;50.360;7.582;2023-04-25T05:42:57;19.57;;;7.90;;
21677;SDS011;11000;50.360;7.582;2023-04-25T05:45:17;13.87;;;6.03;;
21677;SDS011;11000;50.360;7.582;2023-04-25T05:47:38;16.37;;;6.63;;
21677;SDS011;11000;50.360;7.582;2023-04-25T05:49:58;16.90;;;6.67;;
21677;SDS011;11000;50.360;7.582;2023-04-25T05:52:19;17.80;;;6.63;;
21677;SDS011;11000;50.360;7.582;2023-04-25T05:54:39;14.40;;;6.40;;
21677;SDS011;11000;50.360;7.582;2023-04-25T05:57:00;14.27;;;6.70;;
21677;SDS011;11000;50.360;7.582;2023-04-25T05:59:22;14.00;;;6.33;;
21677;SDS011;11000;50.360;7.582;2023-04-25T06:01:43;19.67;;;6.87;;
21677;SDS011;11000;50.360;7.582;2023-04-25T06:04:03;14.17;;;6.57;;
21677;SDS011;11000;50.360;7.582;2023-04-25T06:06:24;16.80;;;6.37;;
21677;SDS011;11000;50.360;7.582;2023-04-25T06:08:45;18.97;;;6.90;;
21677;SDS011;11000;50.360;7.582;2023-04-25T06:11:06;14.53;;;6.77;;
21677;SDS011;11000;50.360;7.582;2023-04-25T06:13:26;14.33;;;5.83;;
21677;SDS011;11000;50.360;7.582;2023-04-25T06:15:46;14.67;;;6.00;;
21677;SDS011;11000;50.360;7.582;2023-04-25T06:18:07;13.93;;;6.23;;
21677;SDS011;11000;50.360;7.582;2023-04-25T06:20:28;13.83;;;6.10;;
21677;SDS011;11000;50.360;7.582;2023-04-25T06:22:48;17.50;;;6.13;;
21677;SDS011;11000;50.360;7.582;2023-04-25T06:25:10;20.77;;;6.27;;
21677;SDS011;11000;50.360;7.582;2023-04-25T06:27:30;11.77;;;5.60;;
21677;SDS011;11000;50.360;7.582;2023-04-25T06:29:51;13.80;;;6.10;;
21677;SDS011;11000;50.360;7.582;2023-04-25T06:32:11;11.80;;;6.10;;
21677;SDS011;11000;50.360;7.582;2023-04-25T06:34:32;14.93;;;6.53;;
21677;SDS011;11000;50.360;7.582;2023-04-25T06:36:52;14.27;;;6.83;;
21677;SDS011;11000;50.360;7.582;2023-04-25T06:39:13;14.50;;;6.10;;
21677;SDS011;11000;50.360;7.582;2023-04-25T06:41:33;15.83;;;6.73;;
21677;SDS011;11000;50.360;7.582;2023-04-25T06:43:54;14.27;;;6.20;;
21677;SDS011;11000;50.360;7.582;2023-04-25T06:46:15;16.43;;;6.67;;
21677;SDS011;11000;50.360;7.582;2023-04-25T06:48:35;15.63;;;6.60;;
21677;SDS011;11000;50.360;7.582;2023-04-25T06:50:56;12.87;;;6.60;;
21677;SDS011;11000;50.360;7.582;2023-04-25T06:53:16;13.67;;;6.47;;
21677;SDS011;11000;50.360;7.582;2023-04-25T06:55:39;12.40;;;6.77;;
21677;SDS011;11000;50.360;7.582;2023-04-25T06:58:00;11.93;;;6.50;;
21677;SDS011;11000;50.360;7.582;2023-04-25T07:00:20;11.87;;;5.90;;
21677;SDS011;11000;50.360;7.582;2023-04-25T07:02:41;17.37;;;6.73;;
21677;SDS011;11000;50.360;7.582;2023-04-25T07:05:03;12.67;;;6.33;;
21677;SDS011;11000;50.360;7.582;2023-04-25T07:07:24;16.03;;;6.97;;
21677;SDS011;11000;50.360;7.582;2023-04-25T07:09:45;12.53;;;6.37;;
21677;SDS011;11000;50.360;7.582;2023-04-25T07:12:05;13.37;;;5.87;;
21677;SDS011;11000;50.360;7.582;2023-04-25T07:14:26;14.17;;;5.97;;
21677;SDS011;11000;50.360;7.582;2023-04-25T07:16:47;13.40;;;6.53;;
21677;SDS011;11000;50.360;7.582;2023-04-25T07:19:07;10.60;;;6.07;;
21677;SDS011;11000;50.360;7.582;2023-04-25T07:21:28;11.13;;;6.20;;
21677;SDS011;11000;50.360;7.582;2023-04-25T07:23:48;11.87;;;6.57;;
21677;SDS011;11000;50.360;7.582;2023-04-25T07:26:09;14.17;;;6.50;;
21677;SDS011;11000;50.360;7.582;2023-04-25T07:28:29;15.53;;;6.57;;
21677;SDS011;11000;50.360;7.582;2023-04-25T07:30:50;11.63;;;6.60;;
21677;SDS011;11000;50.360;7.582;2023-04-25T07:33:11;14.73;;;7.20;;
21677;SDS011;11000;50.360;7.582;2023-04-25T07:35:31;12.93;;;7.10;;
21677;SDS011;11000;50.360;7.582;2023-04-25T07:37:51;12.57;;;6.50;;
21677;SDS011;11000;50.360;7.582;2023-04-25T07:40:12;15.90;;;7.47;;
21677;SDS011;11000;50.360;7.582;2023-04-25T07:42:33;11.50;;;5.90;;
21677;SDS011;11000;50.360;7.582;2023-04-25T07:44:54;11.40;;;5.97;;
21677;SDS011;11000;50.360;7.582;2023-04-25T07:47:14;10.37;;;5.97;;
21677;SDS011;11000;50.360;7.582;2023-04-25T07:49:38;11.63;;;5.50;;
21677;SDS011;11000;50.360;7.582;2023-04-25T07:52:00;13.03;;;5.50;;
21677;SDS011;11000;50.360;7.582;2023-04-25T07:54:21;15.30;;;6.50;;
21677;SDS011;11000;50.360;7.582;2023-04-25T07:56:41;12.40;;;5.97;;
21677;SDS011;11000;50.360;7.582;2023-04-25T07:59:02;12.23;;;6.17;;
21677;SDS011;11000;50.360;7.582;2023-04-25T08:01:22;10.17;;;5.30;;
21677;SDS011;11000;50.360;7.582;2023-04-25T08:03:43;13.00;;;5.47;;
21677;SDS011;11000;50.360;7.582;2023-04-25T08:06:03;11.20;;;5.80;;
21677;SDS011;11000;50.360;7.582;2023-04-25T08:08:25;10.93;;;5.97;;
21677;SDS011;11000;50.360;7.582;2023-04-25T08:10:46;12.40;;;6.57;;
21677;SDS011;11000;50.360;7.582;2023-04-25T08:13:08;12.43;;;5.63;;
21677;SDS011;11000;50.360;7.582;2023-04-25T08:15:28;9.47;;;5.90;;
21677;SDS011;11000;50.360;7.582;2023-04-25T08:17:49;11.43;;;5.77;;
21677;SDS011;11000;50.360;7.582;2023-04-25T08:20:10;9.57;;;5.60;;
21677;SDS011;11000;50.360;7.582;2023-04-25T08:22:31;13.93;;;5.93;;
21677;SDS011;11000;50.360;7.582;2023-04-25T08:24:52;12.77;;;5.70;;
21677;SDS011;11000;50.360;7.582;2023-04-25T08:27:13;18.10;;;6.30;;
21677;SDS011;11000;50.360;7.582;2023-04-25T08:29:33;11.43;;;5.67;;
21677;SDS011;11000;50.360;7.582;2023-04-25T08:31:54;10.30;;;5.60;;
21677;SDS011;11000;50.360;7.582;2023-04-25T08:34:15;15.73;;;5.43;;
21677;SDS011;11000;50.360;7.582;2023-04-25T08:36:36;11.27;;;5.13;;
21677;SDS011;11000;50.360;7.582;2023-04-25T08:38:57;13.00;;;5.07;;
21677;SDS011;11000;50.360;7.582;2023-04-25T08:41:18;12.07;;;5.27;;
21677;SDS011;11000;50.360;7.582;2023-04-25T08:43:42;11.37;;;5.13;;
21677;SDS011;11000;50.360;7.582;2023-04-25T08:46:03;13.77;;;5.60;;
21677;SDS011;11000;50.360;7.582;2023-04-25T08:48:28;13.57;;;3.97;;
21677;SDS011;11000;50.360;7.582;2023-04-25T08:50:53;11.57;;;4.50;;
21677;SDS011;11000;50.360;7.582;2023-04-25T08:53:15;13.83;;;4.03;;
21677;SDS011;11000;50.360;7.582;2023-04-25T08:55:39;8.03;;;4.30;;
21677;SDS011;11000;50.360;7.582;2023-04-25T08:58:02;13.57;;;5.20;;
21677;SDS011;11000;50.360;7.582;2023-04-25T09:00:25;12.50;;;4.33;;
21677;SDS011;11000;50.360;7.582;2023-04-25T09:02:46;12.53;;;4.57;;
21677;SDS011;11000;50.360;7.582;2023-04-25T09:05:07;12.10;;;4.80;;
21677;SDS011;11000;50.360;7.582;2023-04-25T09:07:30;11.77;;;4.70;;
21677;SDS011;11000;50.360;7.582;2023-04-25T09:09:50;12.47;;;4.63;;
21677;SDS011;11000;50.360;7.582;2023-04-25T09:12:11;11.20;;;4.30;;
21677;SDS011;11000;50.360;7.582;2023-04-25T09:14:32;12.63;;;4.47;;
21677;SDS011;11000;50.360;7.582;2023-04-25T09:19:26;16.40;;;4.37;;
21677;SDS011;11000;50.360;7.582;2023-04-25T09:21:54;11.83;;;4.33;;
21677;SDS011;11000;50.360;7.582;2023-04-25T09:24:19;10.03;;;3.53;;
21677;SDS011;11000;50.360;7.582;2023-04-25T09:26:57;8.23;;;3.70;;
21677;SDS011;11000;50.360;7.582;2023-04-25T09:29:18;11.07;;;3.97;;
21677;SDS011;11000;50.360;7.582;2023-04-25T09:31:48;6.30;;;3.30;;
21677;SDS011;11000;50.360;7.582;2023-04-25T09:34:09;7.90;;;3.30;;
21677;SDS011;11000;50.360;7.582;2023-04-25T09:36:35;10.40;;;3.10;;
21677;SDS011;11000;50.360;7.582;2023-04-25T09:38:56;14.77;;;4.30;;
21677;SDS011;11000;50.360;7.582;2023-04-25T09:41:23;9.00;;;3.83;;
21677;SDS011;11000;50.360;7.582;2023-04-25T09:43:44;9.83;;;3.10;;
21677;SDS011;11000;50.360;7.582;2023-04-25T09:46:10;9.33;;;3.53;;
21677;SDS011;11000;50.360;7.582;2023-04-25T09:48:31;10.33;;;3.23;;
21677;SDS011;11000;50.360;7.582;2023-04-25T09:53:29;13.27;;;3.37;;
21677;SDS011;11000;50.360;7.582;2023-04-25T09:55:50;12.53;;;3.37;;
21677;SDS011;11000;50.360;7.582;2023-04-25T09:58:11;7.63;;;3.53;;
21677;SDS011;11000;50.360;7.582;2023-04-25T10:00:33;12.27;;;4.07;;
21677;SDS011;11000;50.360;7.582;2023-04-25T10:02:55;9.43;;;3.43;;
21677;SDS011;11000;50.360;7.582;2023-04-25T10:05:17;11.93;;;3.73;;
21677;SDS011;11000;50.360;7.582;2023-04-25T10:07:38;11.90;;;3.83;;
21677;SDS011;11000;50.360;7.582;2023-04-25T10:10:03;10.63;;;3.60;;
21677;SDS011;11000;50.360;7.582;2023-04-25T10:12:24;14.40;;;4.00;;
21677;SDS011;11000;50.360;7.582;2023-04-25T10:14:46;12.27;;;3.90;;
21677;SDS011;11000;50.360;7.582;2023-04-25T10:17:08;13.53;;;3.20;;
21677;SDS011;11000;50.360;7.582;2023-04-25T10:19:31;9.43;;;3.10;;
21677;SDS011;11000;50.360;7.582;2023-04-25T10:21:57;6.93;;;3.27;;
21677;SDS011;11000;50.360;7.582;2023-04-25T10:24:24;12.23;;;3.03;;
21677;SDS011;11000;50.360;7.582;2023-04-25T10:26:45;5.77;;;2.43;;
21677;SDS011;11000;50.360;7.582;2023-04-25T10:29:08;8.80;;;3.03;;
21677;SDS011;11000;50.360;7.582;2023-04-25T10:31:30;6.67;;;2.60;;
21677;SDS011;11000;50.360;7.582;2023-04-25T10:33:51;5.67;;;2.60;;
21677;SDS011;11000;50.360;7.582;2023-04-25T10:36:12;5.33;;;2.93;;
21677;SDS011;11000;50.360;7.582;2023-04-25T10:38:33;5.03;;;2.50;;
21677;SDS011;11000;50.360;7.582;2023-04-25T10:41:02;7.13;;;2.67;;
21677;SDS011;11000;50.360;7.582;2023-04-25T10:43:33;7.63;;;2.20;;
21677;SDS011;11000;50.360;7.582;2023-04-25T10:45:59;5.83;;;2.53;;
21677;SDS011;11000;50.360;7.582;2023-04-25T10:48:29;8.77;;;2.50;;
21677;SDS011;11000;50.360;7.582;2023-04-25T10:51:06;8.87;;;3.83;;
21677;SDS011;11000;50.360;7.582;2023-04-25T10:53:30;9.90;;;2.37;;
21677;SDS011;11000;50.360;7.582;2023-04-25T10:55:53;14.27;;;2.53;;
21677;SDS011;11000;50.360;7.582;2023-04-25T10:58:14;4.87;;;2.13;;
21677;SDS011;11000;50.360;7.582;2023-04-25T11:00:42;5.73;;;2.43;;
21677;SDS011;11000;50.360;7.582;2023-04-25T11:03:03;8.87;;;2.53;;
21677;SDS011;11000;50.360;7.582;2023-04-25T11:07:52;8.13;;;2.20;;
21677;SDS011;11000;50.360;7.582;2023-04-25T11:10:16;6.37;;;2.10;;
21677;SDS011;11000;50.360;7.582;2023-04-25T11:12:37;12.23;;;2.57;;
21677;SDS011;11000;50.360;7.582;2023-04-25T11:14:59;5.13;;;2.30;;
21677;SDS011;11000;50.360;7.582;2023-04-25T11:17:21;4.93;;;1.80;;
21677;SDS011;11000;50.360;7.582;2023-04-25T11:19:45;7.60;;;2.60;;
21677;SDS011;11000;50.360;7.582;2023-04-25T11:22:09;9.47;;;2.73;;
21677;SDS011;11000;50.360;7.582;2023-04-25T11:24:31;8.87;;;3.50;;
21677;SDS011;11000;50.360;7.582;2023-04-25T11:26:52;9.90;;;3.00;;
21677;SDS011;11000;50.360;7.582;2023-04-25T11:29:13;8.83;;;3.20;;
21677;SDS011;11000;50.360;7.582;2023-04-25T11:31:33;7.90;;;3.20;;
21677;SDS011;11000;50.360;7.582;2023-04-25T11:33:56;9.37;;;3.13;;
21677;SDS011;11000;50.360;7.582;2023-04-25T11:36:17;8.40;;;3.80;;
21677;SDS011;11000;50.360;7.582;2023-04-25T11:38:37;9.57;;;3.10;;
21677;SDS011;11000;50.360;7.582;2023-04-25T11:40:58;9.93;;;3.63;;
21677;SDS011;11000;50.360;7.582;2023-04-25T11:43:22;8.80;;;2.80;;
21677;SDS011;11000;50.360;7.582;2023-04-25T11:45:45;11.87;;;2.80;;
21677;SDS011;11000;50.360;7.582;2023-04-25T11:48:07;6.40;;;2.80;;
21677;SDS011;11000;50.360;7.582;2023-04-25T11:50:27;9.00;;;2.83;;
21677;SDS011;11000;50.360;7.582;2023-04-25T11:52:48;5.67;;;2.30;;
21677;SDS011;11000;50.360;7.582;2023-04-25T11:55:13;8.67;;;2.70;;
21677;SDS011;11000;50.360;7.582;2023-04-25T11:57:35;6.83;;;2.30;;
21677;SDS011;11000;50.360;7.582;2023-04-25T12:00:06;7.37;;;2.60;;
21677;SDS011;11000;50.360;7.582;2023-04-25T12:02:27;9.27;;;2.80;;
21677;SDS011;11000;50.360;7.582;2023-04-25T12:04:47;7.93;;;2.43;;
21677;SDS011;11000;50.360;7.582;2023-04-25T12:07:09;4.90;;;2.10;;
21677;SDS011;11000;50.360;7.582;2023-04-25T12:09:30;7.77;;;2.33;;
21677;SDS011;11000;50.360;7.582;2023-04-25T12:11:53;7.20;;;2.47;;
21677;SDS011;11000;50.360;7.582;2023-04-25T12:14:25;7.77;;;2.07;;
21677;SDS011;11000;50.360;7.582;2023-04-25T12:16:47;4.80;;;1.90;;
21677;SDS011;11000;50.360;7.582;2023-04-25T12:19:08;6.60;;;2.30;;
21677;SDS011;11000;50.360;7.582;2023-04-25T12:21:29;5.47;;;2.00;;
21677;SDS011;11000;50.360;7.582;2023-04-25T12:23:50;4.63;;;2.37;;
21677;SDS011;11000;50.360;7.582;2023-04-25T12:26:11;4.40;;;1.70;;
21677;SDS011;11000;50.360;7.582;2023-04-25T12:28:31;6.40;;;1.80;;
21677;SDS011;11000;50.360;7.582;2023-04-25T12:30:57;6.77;;;2.13;;
21677;SDS011;11000;50.360;7.582;2023-04-25T12:33:18;10.17;;;2.30;;
21677;SDS011;11000;50.360;7.582;2023-04-25T12:35:39;5.73;;;2.40;;
21677;SDS011;11000;50.360;7.582;2023-04-25T12:38:00;7.47;;;2.23;;
21677;SDS011;11000;50.360;7.582;2023-04-25T12:40:21;9.67;;;2.30;;
21677;SDS011;11000;50.360;7.582;2023-04-25T12:42:42;11.03;;;3.03;;
21677;SDS011;11000;50.360;7.582;2023-04-25T12:45:02;5.03;;;1.90;;
21677;SDS011;11000;50.360;7.582;2023-04-25T12:47:23;8.97;;;2.17;;
21677;SDS011;11000;50.360;7.582;2023-04-25T12:49:43;6.03;;;2.33;;
21677;SDS011;11000;50.360;7.582;2023-04-25T12:52:04;3.37;;;1.63;;
21677;SDS011;11000;50.360;7.582;2023-04-25T12:54:25;7.90;;;2.33;;
21677;SDS011;11000;50.360;7.582;2023-04-25T12:56:45;5.30;;;2.20;;
21677;SDS011;11000;50.360;7.582;2023-04-25T12:59:07;4.40;;;2.20;;
21677;SDS011;11000;50.360;7.582;2023-04-25T13:01:27;4.90;;;2.00;;
21677;SDS011;11000;50.360;7.582;2023-04-25T13:03:49;3.93;;;2.23;;
21677;SDS011;11000;50.360;7.582;2023-04-25T13:06:10;5.40;;;2.13;;
21677;SDS011;11000;50.360;7.582;2023-04-25T13:08:30;4.50;;;2.00;;
21677;SDS011;11000;50.360;7.582;2023-04-25T13:10:51;8.03;;;2.50;;
21677;SDS011;11000;50.360;7.582;2023-04-25T13:13:12;5.33;;;2.17;;
21677;SDS011;11000;50.360;7.582;2023-04-25T13:15:32;10.57;;;2.80;;
21677;SDS011;11000;50.360;7.582;2023-04-25T13:17:53;8.83;;;2.27;;
21677;SDS011;11000;50.360;7.582;2023-04-25T13:20:13;7.43;;;1.87;;
21677;SDS011;11000;50.360;7.582;2023-04-25T13:22:36;7.47;;;2.23;;
21677;SDS011;11000;50.360;7.582;2023-04-25T13:24:58;7.20;;;2.20;;
21677;SDS011;11000;50.360;7.582;2023-04-25T13:27:19;6.13;;;2.20;;
21677;SDS011;11000;50.360;7.582;2023-04-25T13:29:39;7.47;;;2.43;;
21677;SDS011;11000;50.360;7.582;2023-04-25T13:32:00;7.47;;;1.90;;
21677;SDS011;11000;50.360;7.582;2023-04-25T13:34:21;6.60;;;2.27;;
21677;SDS011;11000;50.360;7.582;2023-04-25T13:36:42;6.53;;;1.97;;
21677;SDS011;11000;50.360;7.582;2023-04-25T13:39:03;5.77;;;1.70;;
21677;SDS011;11000;50.360;7.582;2023-04-25T13:41:24;4.30;;;1.87;;
21677;SDS011;11000;50.360;7.582;2023-04-25T13:43:46;4.23;;;1.83;;
21677;SDS011;11000;50.360;7.582;2023-04-25T13:46:07;9.67;;;2.10;;
21677;SDS011;11000;50.360;7.582;2023-04-25T13:48:27;6.13;;;2.27;;
21677;SDS011;11000;50.360;7.582;2023-04-25T13:50:48;5.10;;;1.57;;
21677;SDS011;11000;50.360;7.582;2023-04-25T13:53:08;6.87;;;1.90;;
21677;SDS011;11000;50.360;7.582;2023-04-25T13:55:29;7.00;;;2.10;;
21677;SDS011;11000;50.360;7.582;2023-04-25T13:57:50;6.17;;;1.87;;
21677;SDS011;11000;50.360;7.582;2023-04-25T14:00:10;5.43;;;2.20;;
21677;SDS011;11000;50.360;7.582;2023-04-25T14:02:31;5.13;;;2.10;;
21677;SDS011;11000;50.360;7.582;2023-04-25T14:04:52;5.90;;;2.30;;
21677;SDS011;11000;50.360;7.582;2023-04-25T14:07:13;7.07;;;1.93;;
21677;SDS011;11000;50.360;7.582;2023-04-25T14:09:36;7.67;;;2.00;;
21677;SDS011;11000;50.360;7.582;2023-04-25T14:11:56;4.40;;;2.10;;